createdAt,value
2022-12-25T00:02:17.733Z,11.37
2022-12-25T00:05:01.701Z,11.60
2022-12-25T00:07:47.113Z,11.43
2022-12-25T00:10:30.913Z,9.70
2022-12-25T00:13:14.632Z,12.93
2022-12-25T00:16:00.113Z,11.63
2022-12-25T00:18:43.973Z,11.80
2022-12-25T00:21:29.090Z,12.80
2022-12-25T00:24:12.880Z,11.20
2022-12-25T00:26:56.677Z,9.63
2022-12-25T00:29:40.537Z,10.83
2022-12-25T00:32:25.987Z,10.33
2022-12-25T00:35:10.500Z,10.67
2022-12-25T00:37:54.347Z,8.67
2022-12-25T00:40:43.451Z,10.83
2022-12-25T00:43:27.211Z,12.50
2022-12-25T00:46:13.234Z,9.53
2022-12-25T00:49:00.496Z,10.50
2022-12-25T00:51:44.354Z,11.30
2022-12-25T00:54:28.232Z,10.87
2022-12-25T00:57:12.031Z,10.73
2022-12-25T00:59:55.883Z,12.00
2022-12-25T01:02:39.851Z,11.20
2022-12-25T01:05:25.073Z,11.20
2022-12-25T01:08:08.969Z,13.10
2022-12-25T01:10:56.452Z,11.07
2022-12-25T01:13:40.216Z,10.07
2022-12-25T01:16:24.353Z,14.10
2022-12-25T01:19:08.762Z,11.90
2022-12-25T01:21:53.976Z,12.33
2022-12-25T01:24:37.784Z,10.93
2022-12-25T01:27:21.528Z,12.53
2022-12-25T01:30:06.305Z,12.57
2022-12-25T01:32:50.010Z,12.83
2022-12-25T01:35:33.739Z,11.93
2022-12-25T01:38:18.960Z,11.33
2022-12-25T01:41:02.735Z,11.50
2022-12-25T01:44:05.479Z,12.80
2022-12-25T01:46:49.373Z,10.87
2022-12-25T01:49:35.965Z,12.20
2022-12-25T01:52:25.109Z,9.87
2022-12-25T01:55:11.899Z,11.40
2022-12-25T01:57:56.824Z,10.77
2022-12-25T02:00:40.674Z,15.30
2022-12-25T02:03:25.140Z,12.97
2022-12-25T02:06:09.600Z,13.80
2022-12-25T02:08:53.514Z,12.23
2022-12-25T02:11:56.314Z,13.23
2022-12-25T02:14:40.178Z,12.43
2022-12-25T02:17:33.388Z,13.60
2022-12-25T02:20:40.508Z,12.43
2022-12-25T02:23:49.110Z,14.03
2022-12-25T02:26:54.648Z,12.77
2022-12-25T02:29:46.226Z,13.03
2022-12-25T02:32:33.547Z,12.90
2022-12-25T02:35:22.981Z,13.30
2022-12-25T02:38:16.243Z,14.67
2022-12-25T02:41:02.443Z,13.67
2022-12-25T02:44:05.043Z,15.73
2022-12-25T02:47:08.452Z,13.13
2022-12-25T02:50:11.346Z,11.90
2022-12-25T02:53:17.749Z,13.83
2022-12-25T02:56:19.076Z,16.00
2022-12-25T02:59:21.408Z,13.47
2022-12-25T03:02:26.420Z,12.77
2022-12-25T03:05:32.159Z,12.70
2022-12-25T03:08:20.418Z,11.77
2022-12-25T03:11:24.089Z,14.40
2022-12-25T03:14:23.241Z,12.60
2022-12-25T03:17:08.634Z,11.93
2022-12-25T03:20:10.104Z,12.57
2022-12-25T03:23:13.223Z,12.63
2022-12-25T03:26:14.641Z,14.20
2022-12-25T03:28:58.461Z,12.13
2022-12-25T03:31:50.839Z,12.90
2022-12-25T03:35:00.453Z,13.80
2022-12-25T03:38:12.468Z,11.77
2022-12-25T03:41:37.071Z,14.97
2022-12-25T03:44:43.720Z,13.57
2022-12-25T03:47:48.402Z,11.70
2022-12-25T03:50:55.121Z,11.93
2022-12-25T03:54:01.067Z,16.03
2022-12-25T03:57:03.015Z,13.93
2022-12-25T04:00:04.335Z,13.60
2022-12-25T04:03:10.559Z,13.80
2022-12-25T04:06:13.258Z,12.90
2022-12-25T04:09:17.283Z,13.17
2022-12-25T04:12:14.930Z,12.80
2022-12-25T04:15:16.381Z,11.17
2022-12-25T04:18:17.789Z,13.77
2022-12-25T04:21:20.621Z,10.50
2022-12-25T04:24:22.063Z,11.07
2022-12-25T04:27:25.324Z,10.70
2022-12-25T04:30:28.459Z,10.33
2022-12-25T04:33:30.123Z,10.20
2022-12-25T04:36:15.387Z,9.33
2022-12-25T04:38:59.450Z,10.63
2022-12-25T04:41:43.288Z,10.93
2022-12-25T04:44:27.141Z,10.07
2022-12-25T04:47:11.855Z,10.03
2022-12-25T04:49:55.786Z,23.17
2022-12-25T04:52:42.306Z,24.57
2022-12-25T04:55:26.224Z,25.07
2022-12-25T04:58:10.351Z,20.50
2022-12-25T05:00:54.805Z,23.93
2022-12-25T05:03:39.299Z,21.50
2022-12-25T05:06:23.443Z,11.03
2022-12-25T05:09:08.607Z,12.27
2022-12-25T05:11:52.845Z,11.83
2022-12-25T05:14:37.041Z,12.23
2022-12-25T05:17:20.893Z,10.83
2022-12-25T05:20:05.597Z,11.97
2022-12-25T05:22:49.706Z,10.07
2022-12-25T05:25:35.067Z,12.33
2022-12-25T05:28:20.140Z,11.47
2022-12-25T05:31:04.602Z,11.03
2022-12-25T05:33:51.125Z,10.43
2022-12-25T05:36:34.999Z,10.67
2022-12-25T05:39:19.219Z,15.23
2022-12-25T05:42:04.498Z,12.73
2022-12-25T05:44:48.383Z,13.43
2022-12-25T05:47:32.198Z,12.93
2022-12-25T05:50:16.873Z,30.53
2022-12-25T05:53:07.697Z,22.00
2022-12-25T05:55:52.311Z,24.47
2022-12-25T05:58:41.641Z,18.97
2022-12-25T06:01:28.119Z,21.07
2022-12-25T06:04:12.910Z,21.70
2022-12-25T06:06:57.157Z,20.37
2022-12-25T06:09:40.931Z,25.53
2022-12-25T06:12:24.826Z,14.53
2022-12-25T06:15:10.885Z,15.67
2022-12-25T06:17:54.824Z,13.90
2022-12-25T06:20:41.749Z,13.03
2022-12-25T06:23:25.827Z,15.90
2022-12-25T06:26:12.203Z,16.63
2022-12-25T06:28:57.909Z,61.03
2022-12-25T06:31:43.364Z,48.80
2022-12-25T06:34:27.664Z,47.47
2022-12-25T06:37:11.676Z,57.90
2022-12-25T06:39:55.871Z,36.73
2022-12-25T06:42:39.918Z,29.17
2022-12-25T06:45:23.972Z,17.73
2022-12-25T06:48:09.479Z,17.83
2022-12-25T06:50:53.287Z,19.70
2022-12-25T06:53:40.343Z,23.63
2022-12-25T06:56:27.186Z,25.17
2022-12-25T06:59:12.136Z,17.37
2022-12-25T07:01:58.331Z,28.83
2022-12-25T07:04:44.321Z,42.37
2022-12-25T07:07:28.123Z,28.97
2022-12-25T07:10:12.679Z,24.20
2022-12-25T07:12:56.776Z,29.27
2022-12-25T07:15:40.673Z,25.27
2022-12-25T07:18:24.559Z,20.10
2022-12-25T07:21:11.635Z,35.50
2022-12-25T07:23:55.493Z,28.07
2022-12-25T07:26:39.361Z,23.77
2022-12-25T07:29:23.111Z,14.10
2022-12-25T07:32:07.572Z,13.03
2022-12-25T07:34:51.484Z,14.20
2022-12-25T07:37:36.673Z,18.17
2022-12-25T07:40:22.502Z,15.17
2022-12-25T07:43:06.456Z,12.50
2022-12-25T07:45:56.107Z,16.27
2022-12-25T07:48:40.219Z,13.87
2022-12-25T07:51:24.081Z,13.33
2022-12-25T07:54:09.434Z,13.97
2022-12-25T07:56:53.599Z,14.77
2022-12-25T07:59:37.406Z,14.50
2022-12-25T08:02:27.084Z,13.53
2022-12-25T08:05:11.468Z,14.97
2022-12-25T08:07:57.933Z,14.87
2022-12-25T08:10:47.933Z,15.77
2022-12-25T08:13:32.293Z,15.07
2022-12-25T08:16:16.206Z,13.20
2022-12-25T08:19:00.034Z,14.90
2022-12-25T08:21:43.980Z,14.10
2022-12-25T08:24:27.733Z,12.87
2022-12-25T08:27:12.947Z,14.07
2022-12-25T08:29:56.897Z,14.57
2022-12-25T08:32:40.669Z,12.07
2022-12-25T08:35:26.229Z,14.03
2022-12-25T08:38:09.934Z,13.00
2022-12-25T08:40:53.741Z,14.83
2022-12-25T08:43:39.547Z,12.27
2022-12-25T08:46:24.286Z,12.30
2022-12-25T08:49:08.189Z,12.90
2022-12-25T08:51:52.285Z,12.40
2022-12-25T08:54:36.611Z,11.20
2022-12-25T08:57:20.393Z,12.37
2022-12-25T09:00:06.335Z,12.13
2022-12-25T09:02:50.435Z,14.97
2022-12-25T09:05:35.939Z,14.50
2022-12-25T09:08:19.812Z,11.50
2022-12-25T09:11:03.890Z,10.60
2022-12-25T09:13:47.826Z,12.30
2022-12-25T09:16:33.166Z,11.53
2022-12-25T09:19:17.461Z,11.27
2022-12-25T09:22:01.305Z,12.07
2022-12-25T09:24:45.072Z,11.33
2022-12-25T09:27:28.937Z,12.87
2022-12-25T09:30:13.092Z,12.07
2022-12-25T09:32:58.697Z,11.50
2022-12-25T09:35:43.094Z,10.30
2022-12-25T09:38:28.518Z,10.57
2022-12-25T09:41:19.050Z,12.10
2022-12-25T09:44:07.405Z,11.77
2022-12-25T09:46:55.129Z,10.40
2022-12-25T09:49:44.932Z,13.47
2022-12-25T09:52:36.828Z,10.90
2022-12-25T09:55:24.361Z,8.33
2022-12-25T09:58:13.561Z,6.73
2022-12-25T10:01:04.941Z,8.97
2022-12-25T10:04:16.539Z,9.97
2022-12-25T10:07:15.774Z,13.53
2022-12-25T10:10:14.068Z,8.50
2022-12-25T10:13:05.567Z,7.47
2022-12-25T10:15:57.172Z,7.20
2022-12-25T10:19:02.248Z,8.93
2022-12-25T10:21:46.779Z,6.50
2022-12-25T10:24:37.889Z,8.07
2022-12-25T10:27:30.116Z,8.50
2022-12-25T10:30:16.444Z,9.63
2022-12-25T10:33:01.570Z,7.40
2022-12-25T10:35:46.398Z,7.50
2022-12-25T10:38:30.179Z,6.90
2022-12-25T10:41:26.568Z,7.80
2022-12-25T10:44:16.198Z,6.17
2022-12-25T10:47:02.067Z,4.10
2022-12-25T10:49:46.023Z,4.57
2022-12-25T10:52:30.903Z,4.27
2022-12-25T10:55:26.549Z,6.20
2022-12-25T10:58:21.694Z,4.30
2022-12-25T11:01:08.053Z,5.73
2022-12-25T11:03:53.454Z,4.00
2022-12-25T11:06:37.385Z,6.23
2022-12-25T11:09:21.182Z,3.60
2022-12-25T11:12:05.934Z,4.90
2022-12-25T11:14:59.874Z,3.97
2022-12-25T11:17:50.175Z,4.00
2022-12-25T11:20:34.197Z,4.77
2022-12-25T11:23:20.818Z,7.03
2022-12-25T11:26:07.151Z,4.63
2022-12-25T11:28:53.309Z,6.67
2022-12-25T11:31:42.429Z,4.93
2022-12-25T11:34:32.049Z,8.43
2022-12-25T11:37:18.777Z,5.13
2022-12-25T11:40:03.526Z,6.87
2022-12-25T11:42:50.893Z,5.43
2022-12-25T11:45:39.395Z,4.53
2022-12-25T11:48:29.371Z,6.87
2022-12-25T11:51:16.410Z,5.77
2022-12-25T11:54:08.072Z,4.77
2022-12-25T11:56:52.263Z,4.47
2022-12-25T11:59:41.990Z,2.70
2022-12-25T12:02:33.955Z,5.00
2022-12-25T12:05:24.500Z,3.63
2022-12-25T12:08:10.678Z,4.37
2022-12-25T12:11:16.073Z,4.07
2022-12-25T12:14:16.687Z,3.87
2022-12-25T12:17:01.557Z,3.80
2022-12-25T12:19:45.715Z,3.83
2022-12-25T12:22:31.048Z,4.70
2022-12-25T12:25:18.303Z,4.43
2022-12-25T12:28:05.580Z,4.57
2022-12-25T12:31:00.440Z,4.73
2022-12-25T12:33:52.100Z,4.07
2022-12-25T12:36:37.010Z,5.57
2022-12-25T12:39:28.348Z,4.37
2022-12-25T12:42:17.032Z,6.57
2022-12-25T12:45:11.370Z,9.93
2022-12-25T12:47:55.655Z,4.00
2022-12-25T12:50:41.693Z,3.73
2022-12-25T12:53:31.240Z,3.60
2022-12-25T12:56:19.032Z,5.37
2022-12-25T12:59:02.887Z,4.73
2022-12-25T13:01:53.054Z,4.10
2022-12-25T13:04:54.916Z,4.30
2022-12-25T13:07:52.632Z,4.70
2022-12-25T13:10:38.509Z,9.57
2022-12-25T13:13:29.533Z,5.00
2022-12-25T13:16:23.156Z,4.23
2022-12-25T13:19:09.867Z,5.40
2022-12-25T13:21:56.333Z,4.83
2022-12-25T13:24:40.579Z,4.30
2022-12-25T13:27:26.583Z,4.57
2022-12-25T13:30:20.325Z,10.57
2022-12-25T13:33:04.971Z,5.60
2022-12-25T13:35:49.132Z,5.33
2022-12-25T13:38:32.951Z,6.20
2022-12-25T13:41:37.019Z,5.63
2022-12-25T13:44:23.913Z,5.10
2022-12-25T13:47:21.422Z,5.77
2022-12-25T13:50:16.979Z,5.07
2022-12-25T13:53:18.131Z,5.33
2022-12-25T13:56:01.984Z,5.87
2022-12-25T13:58:49.538Z,7.27
2022-12-25T14:01:33.450Z,14.03
2022-12-25T14:04:21.257Z,7.60
2022-12-25T14:07:11.903Z,24.93
2022-12-25T14:09:59.538Z,7.50
2022-12-25T14:12:43.921Z,8.73
2022-12-25T14:15:31.713Z,8.47
2022-12-25T14:18:16.699Z,7.93
2022-12-25T14:21:04.699Z,22.50
2022-12-25T14:23:50.917Z,10.70
2022-12-25T14:26:35.354Z,16.27
2022-12-25T14:29:25.038Z,27.10
2022-12-25T14:32:16.915Z,14.20
2022-12-25T14:35:03.698Z,16.47
2022-12-25T14:37:51.418Z,16.27
2022-12-25T14:40:36.087Z,10.70
2022-12-25T14:43:25.395Z,11.47
2022-12-25T14:46:09.320Z,13.07
2022-12-25T14:49:00.754Z,16.10
2022-12-25T14:51:44.750Z,12.53
2022-12-25T14:54:30.014Z,11.77
2022-12-25T14:57:19.244Z,14.60
2022-12-25T15:00:08.921Z,16.50
2022-12-25T15:02:55.521Z,16.17
2022-12-25T15:05:41.005Z,10.17
2022-12-25T15:08:25.832Z,15.50
2022-12-25T15:11:11.279Z,13.90
2022-12-25T15:13:55.354Z,16.30
2022-12-25T15:16:43.128Z,14.30
2022-12-25T15:19:34.759Z,14.47
2022-12-25T15:22:20.680Z,16.00
2022-12-25T15:25:04.751Z,13.67
2022-12-25T15:27:50.204Z,15.20
2022-12-25T15:30:35.651Z,12.13
2022-12-25T15:33:20.464Z,18.13
2022-12-25T15:36:04.335Z,15.00
2022-12-25T15:38:48.296Z,13.97
2022-12-25T15:41:52.792Z,21.93
2022-12-25T15:44:37.968Z,22.83
2022-12-25T15:47:22.991Z,15.37
2022-12-25T15:50:08.214Z,14.70
2022-12-25T15:52:52.044Z,13.17
2022-12-25T15:55:36.787Z,16.50
2022-12-25T15:58:20.948Z,17.43
2022-12-25T16:01:06.377Z,14.63
2022-12-25T16:03:51.258Z,19.27
2022-12-25T16:06:35.129Z,14.43
2022-12-25T16:09:21.184Z,14.33
2022-12-25T16:12:05.235Z,18.93
2022-12-25T16:14:48.953Z,19.97
2022-12-25T16:17:34.230Z,43.53
2022-12-25T16:20:18.076Z,22.60
2022-12-25T16:23:02.008Z,26.37
2022-12-25T16:25:45.951Z,32.97
2022-12-25T16:28:29.707Z,17.00
2022-12-25T16:31:13.628Z,19.90
2022-12-25T16:33:58.909Z,19.43
2022-12-25T16:36:42.656Z,31.83
2022-12-25T16:39:26.543Z,25.40
2022-12-25T16:42:10.433Z,24.67
2022-12-25T16:44:54.651Z,16.97
2022-12-25T16:47:38.603Z,14.90
2022-12-25T16:50:24.268Z,20.37
2022-12-25T16:53:08.504Z,19.87
2022-12-25T16:55:52.271Z,32.93
2022-12-25T16:58:36.681Z,15.67
2022-12-25T17:01:23.212Z,14.17
2022-12-25T17:04:07.151Z,18.53
2022-12-25T17:06:52.314Z,15.00
2022-12-25T17:09:43.677Z,14.97
2022-12-25T17:12:28.086Z,17.37
2022-12-25T17:15:12.489Z,15.60
2022-12-25T17:17:56.397Z,17.77
2022-12-25T17:20:40.292Z,16.07
2022-12-25T17:23:25.592Z,16.83
2022-12-25T17:26:09.388Z,17.80
2022-12-25T17:28:53.442Z,17.63
2022-12-25T17:31:37.876Z,15.57
2022-12-25T17:34:21.791Z,16.03
2022-12-25T17:37:05.748Z,17.10
2022-12-25T17:39:50.953Z,20.20
2022-12-25T17:42:34.815Z,20.13
2022-12-25T17:45:18.978Z,20.47
2022-12-25T17:48:02.717Z,18.07
2022-12-25T17:50:46.845Z,20.67
2022-12-25T17:53:30.613Z,19.23
2022-12-25T17:56:17.139Z,18.27
2022-12-25T17:59:06.791Z,17.70
2022-12-25T18:01:51.294Z,19.37
2022-12-25T18:04:35.659Z,17.20
2022-12-25T18:07:19.442Z,17.63
2022-12-25T18:10:03.277Z,15.80
2022-12-25T18:12:48.632Z,18.30
2022-12-25T18:15:32.790Z,19.97
2022-12-25T18:18:16.641Z,18.10
2022-12-25T18:21:00.632Z,18.03
2022-12-25T18:23:44.859Z,16.23
2022-12-25T18:26:29.085Z,19.50
2022-12-25T18:29:14.297Z,21.27
2022-12-25T18:31:59.375Z,16.77
2022-12-25T18:34:43.233Z,19.60
2022-12-25T18:37:31.861Z,17.40
2022-12-25T18:40:18.476Z,47.83
2022-12-25T18:43:03.656Z,21.93
2022-12-25T18:45:57.231Z,18.10
2022-12-25T18:48:41.424Z,17.90
2022-12-25T18:51:27.657Z,17.27
2022-12-25T18:54:15.078Z,14.80
2022-12-25T18:57:03.650Z,17.27
2022-12-25T18:59:50.798Z,17.10
2022-12-25T19:02:37.464Z,17.67
2022-12-25T19:05:21.416Z,17.87
2022-12-25T19:08:05.328Z,16.53
2022-12-25T19:10:49.064Z,19.77
2022-12-25T19:13:32.960Z,18.30
2022-12-25T19:16:17.889Z,17.07
2022-12-25T19:19:04.580Z,19.00
2022-12-25T19:21:53.025Z,17.67
2022-12-25T19:24:37.683Z,18.90
2022-12-25T19:27:21.620Z,16.47
2022-12-25T19:30:06.553Z,16.60
2022-12-25T19:32:50.472Z,18.93
2022-12-25T19:35:35.783Z,18.03
2022-12-25T19:38:20.330Z,26.53
2022-12-25T19:41:07.283Z,24.77
2022-12-25T19:43:52.263Z,23.10
2022-12-25T19:46:40.173Z,25.07
2022-12-25T19:49:24.230Z,22.67
2022-12-25T19:52:09.572Z,21.43
2022-12-25T19:54:53.471Z,23.20
2022-12-25T19:57:37.190Z,22.67
2022-12-25T20:00:21.260Z,21.27
2022-12-25T20:03:05.645Z,20.67
2022-12-25T20:05:49.612Z,21.77
2022-12-25T20:08:35.550Z,23.03
2022-12-25T20:11:20.003Z,22.13
2022-12-25T20:14:03.998Z,27.40
2022-12-25T20:16:48.099Z,23.37
2022-12-25T20:19:31.908Z,25.50
2022-12-25T20:22:17.169Z,25.30
2022-12-25T20:25:03.360Z,27.93
2022-12-25T20:27:47.562Z,23.57
2022-12-25T20:30:33.454Z,22.23
2022-12-25T20:33:17.281Z,23.63
2022-12-25T20:36:03.002Z,19.90
2022-12-25T20:38:46.823Z,24.47
2022-12-25T20:41:32.343Z,32.43
2022-12-25T20:44:16.187Z,29.07
2022-12-25T20:47:01.191Z,30.87
2022-12-25T20:49:45.138Z,25.80
2022-12-25T20:52:28.895Z,31.57
2022-12-25T20:55:14.224Z,30.63
2022-12-25T20:57:59.496Z,30.07
2022-12-25T21:00:44.510Z,24.07
2022-12-25T21:03:28.553Z,26.67
2022-12-25T21:06:13.215Z,22.40
2022-12-25T21:08:57.079Z,29.50
2022-12-25T21:11:40.846Z,27.17
2022-12-25T21:14:26.314Z,28.07
2022-12-25T21:17:10.150Z,27.67
2022-12-25T21:19:54.057Z,26.10
2022-12-25T21:22:37.899Z,29.57
2022-12-25T21:25:21.675Z,28.60
2022-12-25T21:28:05.452Z,24.10
2022-12-25T21:30:50.569Z,26.23
2022-12-25T21:33:51.952Z,22.30
2022-12-25T21:36:36.019Z,25.00
2022-12-25T21:39:19.807Z,22.33
2022-12-25T21:42:04.705Z,22.80
2022-12-25T21:44:49.658Z,21.03
2022-12-25T21:48:01.803Z,21.83
2022-12-25T21:50:56.344Z,19.43
2022-12-25T21:53:40.843Z,21.77
2022-12-25T21:56:25.521Z,20.70
2022-12-25T21:59:10.422Z,20.73
2022-12-25T22:01:54.555Z,23.67
2022-12-25T22:04:40.013Z,19.43
2022-12-25T22:07:22.762Z,19.63
2022-12-25T22:10:07.052Z,21.37
2022-12-25T22:13:08.519Z,21.70
2022-12-25T22:16:09.812Z,20.97
2022-12-25T22:19:11.309Z,21.97
2022-12-25T22:21:56.458Z,23.00
2022-12-25T22:24:40.301Z,20.87
2022-12-25T22:27:24.906Z,20.43
2022-12-25T22:30:10.503Z,18.83
2022-12-25T22:32:54.865Z,19.10
2022-12-25T22:35:38.601Z,20.80
2022-12-25T22:38:23.786Z,21.63
2022-12-25T22:41:08.224Z,27.67
2022-12-25T22:44:16.562Z,29.77
2022-12-25T22:46:55.847Z,21.23
2022-12-25T22:49:39.650Z,27.30
2022-12-25T22:52:23.565Z,23.93
2022-12-25T22:55:11.057Z,24.17
2022-12-25T22:57:56.049Z,25.67
2022-12-25T23:00:45.936Z,24.20
2022-12-25T23:03:30.400Z,24.70
2022-12-25T23:06:14.232Z,30.70
2022-12-25T23:08:58.187Z,23.57
2022-12-25T23:11:43.595Z,27.40
2022-12-25T23:14:39.377Z,27.20
2022-12-25T23:17:37.012Z,26.27
2022-12-25T23:20:38.538Z,27.10
2022-12-25T23:23:42.355Z,26.43
2022-12-25T23:26:26.131Z,25.50
2022-12-25T23:29:28.861Z,25.80
2022-12-25T23:32:15.252Z,25.77
2022-12-25T23:34:59.107Z,26.93
2022-12-25T23:37:42.943Z,28.37
2022-12-25T23:40:26.832Z,24.13
2022-12-25T23:43:11.955Z,24.30
2022-12-25T23:45:57.092Z,23.30
2022-12-25T23:48:40.840Z,22.77
2022-12-25T23:51:24.686Z,23.47
2022-12-25T23:54:09.386Z,23.07
2022-12-25T23:56:53.686Z,22.60
2022-12-25T23:59:37.567Z,24.40
